sensor_id;sensor_type;location;lat;lon;timestamp;pressure;altitude;pressure_sealevel;temperature;humidity
68822;BME280;55834;50.870;4.606;2023-03-25T00:00:59;99722.53;;;7.28;57.94
68822;BME280;55834;50.870;4.606;2023-03-25T00:03:26;99732.94;;;7.31;59.00
68822;BME280;55834;50.870;4.606;2023-03-25T00:05:53;99741.50;;;7.08;59.80
68822;BME280;55834;50.870;4.606;2023-03-25T00:08:18;99729.81;;;6.88;60.24
68822;BME280;55834;50.870;4.606;2023-03-25T00:10:44;99736.06;;;7.14;59.30
68822;BME280;55834;50.870;4.606;2023-03-25T00:13:09;99741.34;;;7.42;58.20
68822;BME280;55834;50.870;4.606;2023-03-25T00:15:43;99744.44;;;6.33;61.33
68822;BME280;55834;50.870;4.606;2023-03-25T00:18:12;99745.75;;;6.82;60.18
68822;BME280;55834;50.870;4.606;2023-03-25T00:20:37;99733.75;;;7.03;59.56
68822;BME280;55834;50.870;4.606;2023-03-25T00:23:05;99735.03;;;6.90;59.22
68822;BME280;55834;50.870;4.606;2023-03-25T00:25:30;99738.28;;;7.28;58.84
68822;BME280;55834;50.870;4.606;2023-03-25T00:27:56;99727.16;;;6.90;59.64
68822;BME280;55834;50.870;4.606;2023-03-25T00:30:21;99737.50;;;7.24;60.23
68822;BME280;55834;50.870;4.606;2023-03-25T00:32:47;99736.63;;;7.23;58.23
68822;BME280;55834;50.870;4.606;2023-03-25T00:35:20;99737.84;;;6.51;60.28
68822;BME280;55834;50.870;4.606;2023-03-25T00:37:47;99746.78;;;6.44;60.63
68822;BME280;55834;50.870;4.606;2023-03-25T00:40:16;99730.47;;;6.65;60.13
68822;BME280;55834;50.870;4.606;2023-03-25T00:42:41;99726.00;;;7.28;58.79
68822;BME280;55834;50.870;4.606;2023-03-25T00:45:10;99730.47;;;6.65;59.91
68822;BME280;55834;50.870;4.606;2023-03-25T00:47:36;99723.03;;;7.11;58.94
68822;BME280;55834;50.870;4.606;2023-03-25T00:50:01;99731.66;;;7.14;58.14
68822;BME280;55834;50.870;4.606;2023-03-25T00:52:27;99730.06;;;7.38;57.66
68822;BME280;55834;50.870;4.606;2023-03-25T00:54:53;99741.31;;;6.84;59.25
68822;BME280;55834;50.870;4.606;2023-03-25T00:57:18;99732.91;;;6.71;59.60
68822;BME280;55834;50.870;4.606;2023-03-25T00:59:43;99731.28;;;6.98;59.38
68822;BME280;55834;50.870;4.606;2023-03-25T01:02:09;99734.13;;;6.91;58.88
68822;BME280;55834;50.870;4.606;2023-03-25T01:04:35;99730.25;;;7.04;58.08
68822;BME280;55834;50.870;4.606;2023-03-25T01:07:03;99733.38;;;6.86;59.51
68822;BME280;55834;50.870;4.606;2023-03-25T01:09:28;99732.41;;;6.90;59.11
68822;BME280;55834;50.870;4.606;2023-03-25T01:11:54;99740.53;;;6.48;60.26
68822;BME280;55834;50.870;4.606;2023-03-25T01:14:20;99723.06;;;6.79;60.13
68822;BME280;55834;50.870;4.606;2023-03-25T01:16:49;99735.09;;;7.16;58.85
68822;BME280;55834;50.870;4.606;2023-03-25T01:19:14;99722.47;;;7.01;60.71
68822;BME280;55834;50.870;4.606;2023-03-25T01:21:40;99716.78;;;7.43;59.13
68822;BME280;55834;50.870;4.606;2023-03-25T01:24:07;99709.19;;;7.06;60.96
68822;BME280;55834;50.870;4.606;2023-03-25T01:26:33;99730.47;;;6.32;62.80
68822;BME280;55834;50.870;4.606;2023-03-25T01:28:58;99735.38;;;6.45;61.68
68822;BME280;55834;50.870;4.606;2023-03-25T01:31:24;99735.53;;;6.40;61.67
68822;BME280;55834;50.870;4.606;2023-03-25T01:33:57;99735.31;;;6.15;61.74
68822;BME280;55834;50.870;4.606;2023-03-25T01:36:24;99723.44;;;6.34;61.51
68822;BME280;55834;50.870;4.606;2023-03-25T01:38:50;99726.59;;;6.15;62.45
68822;BME280;55834;50.870;4.606;2023-03-25T01:41:15;99720.66;;;6.41;60.64
68822;BME280;55834;50.870;4.606;2023-03-25T01:43:41;99724.31;;;6.33;61.66
68822;BME280;55834;50.870;4.606;2023-03-25T01:46:12;99734.38;;;5.48;63.57
68822;BME280;55834;50.870;4.606;2023-03-25T01:48:40;99729.16;;;6.49;61.42
68822;BME280;55834;50.870;4.606;2023-03-25T01:51:11;99727.97;;;6.28;62.40
68822;BME280;55834;50.870;4.606;2023-03-25T01:53:39;99731.31;;;6.34;61.37
68822;BME280;55834;50.870;4.606;2023-03-25T01:56:05;99718.25;;;6.64;61.83
68822;BME280;55834;50.870;4.606;2023-03-25T01:58:34;99711.25;;;6.94;60.24
68822;BME280;55834;50.870;4.606;2023-03-25T02:01:00;99720.06;;;6.29;61.40
68822;BME280;55834;50.870;4.606;2023-03-25T02:03:27;99724.31;;;6.33;60.17
68822;BME280;55834;50.870;4.606;2023-03-25T02:05:58;99721.50;;;6.08;61.38
68822;BME280;55834;50.870;4.606;2023-03-25T02:08:27;99709.63;;;6.28;61.13
68822;BME280;55834;50.870;4.606;2023-03-25T02:10:57;99715.50;;;6.36;60.50
68822;BME280;55834;50.870;4.606;2023-03-25T02:13:22;99725.97;;;6.70;60.01
68822;BME280;55834;50.870;4.606;2023-03-25T02:16:42;99708.94;;;6.21;60.21
68822;BME280;55834;50.870;4.606;2023-03-25T02:35:10;99694.09;;;6.51;59.63
68822;BME280;55834;50.870;4.606;2023-03-25T02:41:06;99693.81;;;6.93;58.08
68822;BME280;55834;50.870;4.606;2023-03-25T02:43:42;99697.53;;;6.55;58.61
68822;BME280;55834;50.870;4.606;2023-03-25T02:46:14;99696.31;;;6.36;59.13
68822;BME280;55834;50.870;4.606;2023-03-25T02:48:59;99692.28;;;6.55;59.24
68822;BME280;55834;50.870;4.606;2023-03-25T02:51:32;99674.56;;;6.63;59.41
68822;BME280;55834;50.870;4.606;2023-03-25T02:54:03;99686.19;;;6.22;59.97
68822;BME280;55834;50.870;4.606;2023-03-25T02:56:32;99687.22;;;6.49;58.87
68822;BME280;55834;50.870;4.606;2023-03-25T02:58:59;99689.63;;;6.86;58.14
68822;BME280;55834;50.870;4.606;2023-03-25T03:01:27;99695.63;;;6.29;59.81
68822;BME280;55834;50.870;4.606;2023-03-25T03:03:54;99693.97;;;6.57;58.84
68822;BME280;55834;50.870;4.606;2023-03-25T03:06:20;99693.38;;;6.15;60.08
68822;BME280;55834;50.870;4.606;2023-03-25T03:11:30;99681.38;;;5.72;62.11
68822;BME280;55834;50.870;4.606;2023-03-25T03:14:24;99691.53;;;5.84;61.42
68822;BME280;55834;50.870;4.606;2023-03-25T03:17:07;99680.34;;;5.79;62.33
68822;BME280;55834;50.870;4.606;2023-03-25T03:19:54;99686.50;;;5.42;63.55
68822;BME280;55834;50.870;4.606;2023-03-25T03:25:00;99679.44;;;6.46;60.48
68822;BME280;55834;50.870;4.606;2023-03-25T03:27:37;99693.97;;;5.92;61.47
68822;BME280;55834;50.870;4.606;2023-03-25T03:30:26;99705.94;;;5.68;62.56
68822;BME280;55834;50.870;4.606;2023-03-25T03:33:17;99690.44;;;5.93;62.40
68822;BME280;55834;50.870;4.606;2023-03-25T03:35:53;99691.97;;;5.68;62.92
68822;BME280;55834;50.870;4.606;2023-03-25T03:38:24;99685.28;;;5.90;63.63
68822;BME280;55834;50.870;4.606;2023-03-25T03:40:55;99689.09;;;6.44;62.69
68822;BME280;55834;50.870;4.606;2023-03-25T03:43:29;99681.78;;;6.55;62.09
68822;BME280;55834;50.870;4.606;2023-03-25T03:46:00;99693.13;;;6.55;61.02
68822;BME280;55834;50.870;4.606;2023-03-25T03:48:34;99692.31;;;6.53;61.39
68822;BME280;55834;50.870;4.606;2023-03-25T03:51:09;99695.47;;;6.35;62.10
68822;BME280;55834;50.870;4.606;2023-03-25T03:53:43;99698.19;;;6.30;62.40
68822;BME280;55834;50.870;4.606;2023-03-25T03:56:32;99681.59;;;6.61;61.70
68822;BME280;55834;50.870;4.606;2023-03-25T03:59:09;99687.44;;;6.72;62.52
68822;BME280;55834;50.870;4.606;2023-03-25T04:01:41;99700.09;;;6.56;63.20
68822;BME280;55834;50.870;4.606;2023-03-25T04:04:18;99691.91;;;6.98;61.27
68822;BME280;55834;50.870;4.606;2023-03-25T04:06:55;99696.88;;;6.47;61.83
68822;BME280;55834;50.870;4.606;2023-03-25T04:14:37;99691.06;;;6.36;62.60
68822;BME280;55834;50.870;4.606;2023-03-25T04:17:05;99694.31;;;6.76;62.22
68822;BME280;55834;50.870;4.606;2023-03-25T04:19:31;99702.78;;;6.22;63.49
68822;BME280;55834;50.870;4.606;2023-03-25T04:21:59;99695.84;;;5.87;64.28
68822;BME280;55834;50.870;4.606;2023-03-25T04:24:26;99705.16;;;5.99;63.65
68822;BME280;55834;50.870;4.606;2023-03-25T04:26:56;99691.09;;;6.03;63.53
68822;BME280;55834;50.870;4.606;2023-03-25T04:29:23;99689.84;;;5.83;64.36
68822;BME280;55834;50.870;4.606;2023-03-25T04:31:50;99683.47;;;6.57;62.41
68822;BME280;55834;50.870;4.606;2023-03-25T04:34:18;99687.13;;;6.19;62.72
68822;BME280;55834;50.870;4.606;2023-03-25T04:36:44;99687.81;;;6.57;61.94
68822;BME280;55834;50.870;4.606;2023-03-25T04:39:11;99698.69;;;5.79;64.09
68822;BME280;55834;50.870;4.606;2023-03-25T04:41:37;99700.31;;;6.16;64.34
68822;BME280;55834;50.870;4.606;2023-03-25T04:44:03;99707.63;;;5.71;65.64
68822;BME280;55834;50.870;4.606;2023-03-25T04:46:32;99699.28;;;5.89;64.69
68822;BME280;55834;50.870;4.606;2023-03-25T04:48:58;99706.31;;;5.87;64.60
68822;BME280;55834;50.870;4.606;2023-03-25T04:51:24;99699.19;;;6.26;63.33
68822;BME280;55834;50.870;4.606;2023-03-25T04:53:50;99701.25;;;5.45;65.76
68822;BME280;55834;50.870;4.606;2023-03-25T04:56:17;99695.13;;;5.46;65.96
68822;BME280;55834;50.870;4.606;2023-03-25T04:58:43;99700.19;;;5.54;65.98
68822;BME280;55834;50.870;4.606;2023-03-25T05:01:18;99702.69;;;5.93;63.71
68822;BME280;55834;50.870;4.606;2023-03-25T05:03:44;99702.28;;;6.08;63.80
68822;BME280;55834;50.870;4.606;2023-03-25T05:06:09;99702.41;;;5.33;64.86
68822;BME280;55834;50.870;4.606;2023-03-25T05:08:35;99699.91;;;5.99;64.05
68822;BME280;55834;50.870;4.606;2023-03-25T05:11:00;99700.31;;;5.83;64.33
68822;BME280;55834;50.870;4.606;2023-03-25T05:13:27;99707.22;;;6.20;62.47
68822;BME280;55834;50.870;4.606;2023-03-25T05:15:52;99710.88;;;5.80;63.58
68822;BME280;55834;50.870;4.606;2023-03-25T05:18:18;99712.56;;;6.16;61.99
68822;BME280;55834;50.870;4.606;2023-03-25T05:20:45;99702.75;;;6.24;62.00
68822;BME280;55834;50.870;4.606;2023-03-25T05:23:12;99708.31;;;6.11;62.30
68822;BME280;55834;50.870;4.606;2023-03-25T05:25:43;99720.34;;;5.84;62.95
68822;BME280;55834;50.870;4.606;2023-03-25T05:28:09;99719.13;;;5.65;64.39
68822;BME280;55834;50.870;4.606;2023-03-25T05:30:42;99723.53;;;5.26;64.80
68822;BME280;55834;50.870;4.606;2023-03-25T05:33:11;99735.00;;;5.57;63.56
68822;BME280;55834;50.870;4.606;2023-03-25T05:35:37;99743.34;;;6.09;61.69
68822;BME280;55834;50.870;4.606;2023-03-25T05:38:04;99746.63;;;5.81;63.29
68822;BME280;55834;50.870;4.606;2023-03-25T05:40:29;99739.38;;;6.27;61.34
68822;BME280;55834;50.870;4.606;2023-03-25T05:42:55;99740.72;;;6.42;60.87
68822;BME280;55834;50.870;4.606;2023-03-25T05:45:21;99746.72;;;5.78;62.27
68822;BME280;55834;50.870;4.606;2023-03-25T05:47:47;99746.69;;;5.80;62.54
68822;BME280;55834;50.870;4.606;2023-03-25T05:50:12;99746.53;;;6.20;61.41
68822;BME280;55834;50.870;4.606;2023-03-25T05:52:41;99758.38;;;6.35;61.06
68822;BME280;55834;50.870;4.606;2023-03-25T05:55:10;99753.72;;;5.76;63.07
68822;BME280;55834;50.870;4.606;2023-03-25T05:57:36;99761.53;;;6.14;61.81
68822;BME280;55834;50.870;4.606;2023-03-25T06:00:02;99758.34;;;6.69;59.94
68822;BME280;55834;50.870;4.606;2023-03-25T06:02:33;99754.97;;;6.31;61.09
68822;BME280;55834;50.870;4.606;2023-03-25T06:04:59;99760.16;;;6.34;61.20
68822;BME280;55834;50.870;4.606;2023-03-25T06:07:24;99763.72;;;5.60;63.08
68822;BME280;55834;50.870;4.606;2023-03-25T06:09:50;99770.41;;;6.08;61.50
68822;BME280;55834;50.870;4.606;2023-03-25T06:12:20;99755.31;;;5.83;61.80
68822;BME280;55834;50.870;4.606;2023-03-25T06:14:46;99752.66;;;6.19;61.24
68822;BME280;55834;50.870;4.606;2023-03-25T06:17:15;99750.53;;;6.33;60.84
68822;BME280;55834;50.870;4.606;2023-03-25T06:19:43;99752.22;;;6.03;61.31
68822;BME280;55834;50.870;4.606;2023-03-25T06:22:09;99744.25;;;5.35;63.33
68822;BME280;55834;50.870;4.606;2023-03-25T06:24:39;99757.75;;;5.16;63.87
68822;BME280;55834;50.870;4.606;2023-03-25T06:27:13;99752.94;;;5.74;62.89
68822;BME280;55834;50.870;4.606;2023-03-25T06:29:39;99765.75;;;6.19;61.44
68822;BME280;55834;50.870;4.606;2023-03-25T06:32:10;99755.44;;;6.13;61.44
68822;BME280;55834;50.870;4.606;2023-03-25T06:34:36;99765.38;;;6.00;61.98
68822;BME280;55834;50.870;4.606;2023-03-25T06:37:02;99782.50;;;5.40;62.68
68822;BME280;55834;50.870;4.606;2023-03-25T06:39:28;99778.00;;;6.19;61.96
68822;BME280;55834;50.870;4.606;2023-03-25T06:42:00;99780.38;;;5.58;63.20
68822;BME280;55834;50.870;4.606;2023-03-25T06:44:26;99778.53;;;6.33;60.56
68822;BME280;55834;50.870;4.606;2023-03-25T06:46:52;99773.09;;;5.71;62.97
68822;BME280;55834;50.870;4.606;2023-03-25T06:49:18;99786.00;;;5.78;62.17
68822;BME280;55834;50.870;4.606;2023-03-25T06:51:43;99785.50;;;5.62;61.66
68822;BME280;55834;50.870;4.606;2023-03-25T06:54:09;99782.94;;;5.20;63.51
68822;BME280;55834;50.870;4.606;2023-03-25T06:56:34;99787.47;;;5.53;62.73
68822;BME280;55834;50.870;4.606;2023-03-25T06:59:00;99770.94;;;5.88;61.84
68822;BME280;55834;50.870;4.606;2023-03-25T07:01:25;99787.28;;;5.98;61.55
68822;BME280;55834;50.870;4.606;2023-03-25T07:03:51;99779.81;;;5.82;61.30
68822;BME280;55834;50.870;4.606;2023-03-25T07:06:19;99781.38;;;5.89;60.67
68822;BME280;55834;50.870;4.606;2023-03-25T07:08:46;99794.75;;;6.13;60.47
68822;BME280;55834;50.870;4.606;2023-03-25T07:11:12;99796.75;;;6.38;60.69
68822;BME280;55834;50.870;4.606;2023-03-25T07:13:38;99798.19;;;6.49;60.15
68822;BME280;55834;50.870;4.606;2023-03-25T07:16:04;99793.69;;;5.86;61.72
68822;BME280;55834;50.870;4.606;2023-03-25T07:18:30;99803.44;;;6.84;60.02
68822;BME280;55834;50.870;4.606;2023-03-25T07:20:55;99804.41;;;7.11;58.61
68822;BME280;55834;50.870;4.606;2023-03-25T07:23:20;99815.81;;;6.78;59.52
68822;BME280;55834;50.870;4.606;2023-03-25T07:25:46;99804.34;;;7.42;58.61
68822;BME280;55834;50.870;4.606;2023-03-25T07:28:12;99813.03;;;6.50;59.87
68822;BME280;55834;50.870;4.606;2023-03-25T07:30:37;99820.03;;;6.84;59.66
68822;BME280;55834;50.870;4.606;2023-03-25T07:33:02;99809.63;;;7.40;58.26
68822;BME280;55834;50.870;4.606;2023-03-25T07:35:28;99808.78;;;6.79;59.38
68822;BME280;55834;50.870;4.606;2023-03-25T07:37:53;99820.66;;;6.25;60.56
68822;BME280;55834;50.870;4.606;2023-03-25T07:40:18;99833.09;;;6.86;58.80
68822;BME280;55834;50.870;4.606;2023-03-25T07:42:44;99833.47;;;6.38;60.25
68822;BME280;55834;50.870;4.606;2023-03-25T07:45:10;99834.06;;;6.13;61.56
68822;BME280;55834;50.870;4.606;2023-03-25T07:47:35;99832.22;;;6.85;59.66
68822;BME280;55834;50.870;4.606;2023-03-25T07:50:00;99828.66;;;7.19;58.88
68822;BME280;55834;50.870;4.606;2023-03-25T07:52:26;99819.56;;;7.01;59.45
68822;BME280;55834;50.870;4.606;2023-03-25T07:54:51;99828.44;;;7.27;57.96
68822;BME280;55834;50.870;4.606;2023-03-25T07:57:17;99831.28;;;7.49;58.05
68822;BME280;55834;50.870;4.606;2023-03-25T07:59:42;99838.66;;;6.75;59.42
68822;BME280;55834;50.870;4.606;2023-03-25T08:02:11;99819.53;;;7.60;57.58
68822;BME280;55834;50.870;4.606;2023-03-25T08:04:36;99835.66;;;6.54;60.21
68822;BME280;55834;50.870;4.606;2023-03-25T08:07:02;99844.38;;;6.89;59.12
68822;BME280;55834;50.870;4.606;2023-03-25T08:09:29;99843.97;;;6.38;60.43
68822;BME280;55834;50.870;4.606;2023-03-25T08:11:54;99840.56;;;7.01;60.51
68822;BME280;55834;50.870;4.606;2023-03-25T08:14:20;99852.78;;;7.00;59.03
68822;BME280;55834;50.870;4.606;2023-03-25T08:16:46;99856.78;;;7.45;57.69
68822;BME280;55834;50.870;4.606;2023-03-25T08:19:11;99862.06;;;7.14;59.68
68822;BME280;55834;50.870;4.606;2023-03-25T08:21:37;99863.06;;;7.10;59.08
68822;BME280;55834;50.870;4.606;2023-03-25T08:24:02;99856.66;;;6.53;61.50
68822;BME280;55834;50.870;4.606;2023-03-25T08:26:32;99867.69;;;7.31;60.85
68822;BME280;55834;50.870;4.606;2023-03-25T08:29:00;99866.44;;;7.13;59.87
68822;BME280;55834;50.870;4.606;2023-03-25T08:31:28;99861.50;;;7.03;60.22
68822;BME280;55834;50.870;4.606;2023-03-25T08:33:59;99849.81;;;7.74;58.99
68822;BME280;55834;50.870;4.606;2023-03-25T08:36:25;99859.31;;;7.48;59.14
68822;BME280;55834;50.870;4.606;2023-03-25T08:38:50;99848.25;;;7.95;58.48
68822;BME280;55834;50.870;4.606;2023-03-25T08:41:16;99857.06;;;7.94;58.88
68822;BME280;55834;50.870;4.606;2023-03-25T08:43:42;99851.75;;;8.23;57.36
68822;BME280;55834;50.870;4.606;2023-03-25T08:46:07;99862.78;;;8.08;57.23
68822;BME280;55834;50.870;4.606;2023-03-25T08:48:33;99860.94;;;7.82;57.96
68822;BME280;55834;50.870;4.606;2023-03-25T08:50:58;99848.38;;;8.20;56.66
68822;BME280;55834;50.870;4.606;2023-03-25T08:53:25;99855.66;;;9.13;54.75
68822;BME280;55834;50.870;4.606;2023-03-25T08:55:53;99852.16;;;8.11;57.76
68822;BME280;55834;50.870;4.606;2023-03-25T08:58:19;99861.72;;;8.92;55.95
68822;BME280;55834;50.870;4.606;2023-03-25T09:00:45;99879.06;;;8.46;57.05
68822;BME280;55834;50.870;4.606;2023-03-25T09:03:11;99882.16;;;8.58;56.84
68822;BME280;55834;50.870;4.606;2023-03-25T09:05:37;99871.13;;;8.21;54.91
68822;BME280;55834;50.870;4.606;2023-03-25T09:08:03;99864.25;;;8.68;54.71
68822;BME280;55834;50.870;4.606;2023-03-25T09:10:29;99878.13;;;8.98;56.35
68822;BME280;55834;50.870;4.606;2023-03-25T09:12:55;99869.69;;;9.14;55.96
68822;BME280;55834;50.870;4.606;2023-03-25T09:15:20;99876.09;;;9.07;55.62
68822;BME280;55834;50.870;4.606;2023-03-25T09:17:46;99873.69;;;9.49;55.01
68822;BME280;55834;50.870;4.606;2023-03-25T09:20:12;99890.88;;;9.59;54.11
68822;BME280;55834;50.870;4.606;2023-03-25T09:22:38;99891.22;;;9.50;54.16
68822;BME280;55834;50.870;4.606;2023-03-25T09:25:04;99908.59;;;8.27;57.85
68822;BME280;55834;50.870;4.606;2023-03-25T09:27:31;99901.97;;;8.42;60.00
68822;BME280;55834;50.870;4.606;2023-03-25T09:29:56;99903.72;;;8.43;58.24
68822;BME280;55834;50.870;4.606;2023-03-25T09:32:22;99911.91;;;8.06;59.39
68822;BME280;55834;50.870;4.606;2023-03-25T09:34:47;99907.31;;;8.12;61.29
68822;BME280;55834;50.870;4.606;2023-03-25T09:37:12;99902.63;;;6.69;63.70
68822;BME280;55834;50.870;4.606;2023-03-25T09:39:38;99912.47;;;8.16;63.08
68822;BME280;55834;50.870;4.606;2023-03-25T09:42:08;99899.75;;;8.56;60.77
68822;BME280;55834;50.870;4.606;2023-03-25T09:47:11;99901.94;;;8.44;60.72
68822;BME280;55834;50.870;4.606;2023-03-25T09:49:41;99915.50;;;7.74;61.49
68822;BME280;55834;50.870;4.606;2023-03-25T09:52:19;99906.28;;;7.59;62.77
68822;BME280;55834;50.870;4.606;2023-03-25T09:54:53;99899.06;;;7.95;62.59
68822;BME280;55834;50.870;4.606;2023-03-25T09:57:24;99880.94;;;8.69;60.69
68822;BME280;55834;50.870;4.606;2023-03-25T09:59:52;99894.38;;;8.05;61.12
68822;BME280;55834;50.870;4.606;2023-03-25T10:02:40;99888.19;;;8.87;60.94
68822;BME280;55834;50.870;4.606;2023-03-25T10:05:15;99903.09;;;8.07;59.50
68822;BME280;55834;50.870;4.606;2023-03-25T10:11:04;99925.09;;;7.75;61.45
68822;BME280;55834;50.870;4.606;2023-03-25T10:16:36;99933.88;;;7.74;60.60
68822;BME280;55834;50.870;4.606;2023-03-25T10:21:52;99921.72;;;8.55;61.83
68822;BME280;55834;50.870;4.606;2023-03-25T10:26:59;99906.06;;;8.77;62.66
68822;BME280;55834;50.870;4.606;2023-03-25T10:29:35;99905.19;;;8.77;60.95
68822;BME280;55834;50.870;4.606;2023-03-25T10:32:05;99906.72;;;8.84;62.40
68822;BME280;55834;50.870;4.606;2023-03-25T10:34:39;99896.19;;;8.84;59.59
68822;BME280;55834;50.870;4.606;2023-03-25T10:37:10;99898.78;;;8.59;59.05
68822;BME280;55834;50.870;4.606;2023-03-25T10:39:41;99902.22;;;8.61;58.42
68822;BME280;55834;50.870;4.606;2023-03-25T10:42:25;99906.59;;;9.37;58.06
68822;BME280;55834;50.870;4.606;2023-03-25T10:44:51;99902.56;;;8.77;55.18
68822;BME280;55834;50.870;4.606;2023-03-25T10:47:19;99907.25;;;8.94;56.93
68822;BME280;55834;50.870;4.606;2023-03-25T10:49:47;99905.38;;;8.72;57.35
68822;BME280;55834;50.870;4.606;2023-03-25T10:52:14;99889.56;;;8.97;57.49
68822;BME280;55834;50.870;4.606;2023-03-25T10:54:44;99880.19;;;9.86;54.30
68822;BME280;55834;50.870;4.606;2023-03-25T10:57:22;99905.69;;;9.13;54.33
68822;BME280;55834;50.870;4.606;2023-03-25T11:02:30;99908.47;;;9.59;53.91
68822;BME280;55834;50.870;4.606;2023-03-25T11:05:02;99893.56;;;9.58;51.29
68822;BME280;55834;50.870;4.606;2023-03-25T11:07:34;99910.81;;;9.18;53.67
68822;BME280;55834;50.870;4.606;2023-03-25T11:12:40;99910.69;;;9.21;54.41
68822;BME280;55834;50.870;4.606;2023-03-25T11:15:18;99901.50;;;9.80;54.74
68822;BME280;55834;50.870;4.606;2023-03-25T11:17:46;99906.38;;;9.90;54.74
68822;BME280;55834;50.870;4.606;2023-03-25T11:20:26;99901.09;;;9.90;52.19
68822;BME280;55834;50.870;4.606;2023-03-25T11:22:53;99911.66;;;9.90;52.14
68822;BME280;55834;50.870;4.606;2023-03-25T11:25:24;99916.63;;;10.20;51.38
68822;BME280;55834;50.870;4.606;2023-03-25T11:27:55;99907.56;;;10.49;51.12
68822;BME280;55834;50.870;4.606;2023-03-25T11:30:22;99897.78;;;10.07;52.04
68822;BME280;55834;50.870;4.606;2023-03-25T11:32:58;99910.84;;;9.16;54.74
68822;BME280;55834;50.870;4.606;2023-03-25T11:35:29;99909.09;;;9.42;54.59
68822;BME280;55834;50.870;4.606;2023-03-25T11:37:59;99897.31;;;9.27;52.64
68822;BME280;55834;50.870;4.606;2023-03-25T11:40:26;99904.78;;;9.14;53.92
68822;BME280;55834;50.870;4.606;2023-03-25T11:42:56;99900.19;;;8.16;53.06
68822;BME280;55834;50.870;4.606;2023-03-25T11:45:25;99910.13;;;8.34;54.18
68822;BME280;55834;50.870;4.606;2023-03-25T11:47:52;99899.91;;;7.96;55.37
68822;BME280;55834;50.870;4.606;2023-03-25T11:50:24;99935.28;;;7.24;60.71
68822;BME280;55834;50.870;4.606;2023-03-25T11:52:55;99972.13;;;6.87;61.46
68822;BME280;55834;50.870;4.606;2023-03-25T11:55:28;99962.06;;;7.68;60.84
68822;BME280;55834;50.870;4.606;2023-03-25T11:57:55;99960.16;;;8.03;61.73
68822;BME280;55834;50.870;4.606;2023-03-25T12:00:39;99959.28;;;6.76;63.65
68822;BME280;55834;50.870;4.606;2023-03-25T12:05:36;99971.13;;;6.18;65.93
68822;BME280;55834;50.870;4.606;2023-03-25T12:08:13;99953.09;;;6.42;67.85
68822;BME280;55834;50.870;4.606;2023-03-25T12:10:53;99962.06;;;6.69;66.00
68822;BME280;55834;50.870;4.606;2023-03-25T12:13:29;99967.31;;;7.68;63.72
68822;BME280;55834;50.870;4.606;2023-03-25T12:24:49;99965.41;;;8.03;62.45
68822;BME280;55834;50.870;4.606;2023-03-25T12:35:43;99953.41;;;7.95;64.46
68822;BME280;55834;50.870;4.606;2023-03-25T12:38:33;99958.84;;;8.46;63.84
68822;BME280;55834;50.870;4.606;2023-03-25T12:41:10;99951.03;;;8.17;62.48
68822;BME280;55834;50.870;4.606;2023-03-25T12:43:49;99947.00;;;8.59;62.27
68822;BME280;55834;50.870;4.606;2023-03-25T12:51:57;99959.38;;;8.29;62.08
68822;BME280;55834;50.870;4.606;2023-03-25T13:00:02;99961.53;;;7.24;64.80
68822;BME280;55834;50.870;4.606;2023-03-25T13:05:49;99960.28;;;7.05;64.87
68822;BME280;55834;50.870;4.606;2023-03-25T13:08:42;99967.19;;;8.03;63.94
68822;BME280;55834;50.870;4.606;2023-03-25T13:11:22;99945.09;;;7.79;65.34
68822;BME280;55834;50.870;4.606;2023-03-25T13:13:52;99958.19;;;7.80;64.31
68822;BME280;55834;50.870;4.606;2023-03-25T13:16:22;99975.00;;;8.06;64.89
68822;BME280;55834;50.870;4.606;2023-03-25T13:18:56;99977.97;;;7.94;64.12
68822;BME280;55834;50.870;4.606;2023-03-25T13:21:40;99985.34;;;7.17;65.91
68822;BME280;55834;50.870;4.606;2023-03-25T13:24:16;99958.50;;;7.69;63.85
68822;BME280;55834;50.870;4.606;2023-03-25T13:26:44;99967.56;;;7.28;64.77
68822;BME280;55834;50.870;4.606;2023-03-25T13:29:23;99968.81;;;8.07;63.37
68822;BME280;55834;50.870;4.606;2023-03-25T13:31:58;99964.56;;;8.59;64.31
68822;BME280;55834;50.870;4.606;2023-03-25T13:34:51;99968.06;;;8.59;63.33
68822;BME280;55834;50.870;4.606;2023-03-25T13:37:39;99953.44;;;8.77;63.95
68822;BME280;55834;50.870;4.606;2023-03-25T13:45:16;99941.94;;;9.55;60.38
68822;BME280;55834;50.870;4.606;2023-03-25T13:47:46;99954.75;;;8.91;60.36
68822;BME280;55834;50.870;4.606;2023-03-25T13:50:27;99930.19;;;9.40;58.25
68822;BME280;55834;50.870;4.606;2023-03-25T13:53:01;99938.63;;;9.25;58.08
68822;BME280;55834;50.870;4.606;2023-03-25T13:55:34;99938.34;;;9.81;56.72
68822;BME280;55834;50.870;4.606;2023-03-25T13:58:17;99936.00;;;9.97;57.79
68822;BME280;55834;50.870;4.606;2023-03-25T14:01:08;99930.03;;;9.45;53.97
68822;BME280;55834;50.870;4.606;2023-03-25T14:06:45;99946.59;;;9.48;53.93
68822;BME280;55834;50.870;4.606;2023-03-25T14:12:32;99950.88;;;9.98;52.08
68822;BME280;55834;50.870;4.606;2023-03-25T14:15:04;99963.28;;;9.72;52.16
68822;BME280;55834;50.870;4.606;2023-03-25T14:17:31;99954.94;;;9.61;53.24
68822;BME280;55834;50.870;4.606;2023-03-25T14:19:59;99960.19;;;10.30;49.81
68822;BME280;55834;50.870;4.606;2023-03-25T14:22:30;99960.69;;;9.47;50.65
68822;BME280;55834;50.870;4.606;2023-03-25T14:24:58;99965.97;;;10.40;50.77
68822;BME280;55834;50.870;4.606;2023-03-25T14:27:29;99979.50;;;9.62;48.92
68822;BME280;55834;50.870;4.606;2023-03-25T14:30:02;99972.63;;;10.05;49.18
68822;BME280;55834;50.870;4.606;2023-03-25T14:32:31;99979.09;;;9.72;51.29
68822;BME280;55834;50.870;4.606;2023-03-25T14:56:47;99983.88;;;9.11;53.49
68822;BME280;55834;50.870;4.606;2023-03-25T14:59:20;99991.72;;;8.59;54.73
68822;BME280;55834;50.870;4.606;2023-03-25T15:01:47;100007.16;;;9.23;54.54
68822;BME280;55834;50.870;4.606;2023-03-25T15:04:22;100003.44;;;9.56;54.70
68822;BME280;55834;50.870;4.606;2023-03-25T15:06:48;99997.28;;;8.50;57.20
68822;BME280;55834;50.870;4.606;2023-03-25T15:09:15;99995.56;;;8.77;57.52
68822;BME280;55834;50.870;4.606;2023-03-25T15:11:44;99995.44;;;9.82;56.35
68822;BME280;55834;50.870;4.606;2023-03-25T15:14:19;99989.19;;;9.85;55.16
68822;BME280;55834;50.870;4.606;2023-03-25T15:19:16;100013.28;;;9.76;54.01
68822;BME280;55834;50.870;4.606;2023-03-25T15:24:42;100016.31;;;8.01;57.74